createdAt,value
2023-05-18T00:01:24.406Z,0.30
2023-05-18T00:03:55.033Z,0.30
2023-05-18T00:06:22.765Z,0.90
2023-05-18T00:08:49.372Z,0.50
2023-05-18T00:11:16.081Z,0.40
2023-05-18T00:13:42.654Z,0.43
2023-05-18T00:16:09.576Z,0.45
2023-05-18T00:18:36.272Z,0.40
2023-05-18T00:21:02.871Z,0.40
2023-05-18T00:23:31.023Z,0.40
2023-05-18T00:25:58.844Z,0.43
2023-05-18T00:28:25.938Z,0.40
2023-05-18T00:30:53.677Z,3.03
2023-05-18T00:33:20.593Z,1.25
2023-05-18T00:35:47.239Z,0.30
2023-05-18T00:38:15.524Z,0.40
2023-05-18T00:40:42.664Z,0.40
2023-05-18T00:43:09.958Z,0.40
2023-05-18T00:45:36.782Z,0.50
2023-05-18T00:48:03.653Z,0.30
2023-05-18T00:50:30.506Z,0.32
2023-05-18T00:52:57.287Z,0.40
2023-05-18T00:55:24.092Z,0.30
2023-05-18T00:57:51.854Z,0.30
2023-05-18T01:00:20.681Z,0.40
2023-05-18T01:02:47.495Z,0.30
2023-05-18T01:05:14.241Z,0.30
2023-05-18T01:07:44.443Z,0.30
2023-05-18T01:10:12.571Z,0.30
2023-05-18T01:12:54.513Z,0.30
2023-05-18T01:18:17.841Z,1.30
2023-05-18T01:20:49.947Z,0.20
2023-05-18T01:23:52.378Z,0.30
2023-05-18T01:26:30.563Z,0.60
2023-05-18T01:29:03.519Z,0.40
2023-05-18T01:31:30.519Z,0.30
2023-05-18T01:33:57.209Z,0.20
2023-05-18T01:36:23.783Z,0.25
2023-05-18T01:38:51.539Z,0.30
2023-05-18T01:41:22.813Z,0.32
2023-05-18T01:44:05.015Z,0.35
2023-05-18T01:46:48.905Z,0.30
2023-05-18T01:49:21.440Z,0.30
2023-05-18T01:51:49.368Z,0.52
2023-05-18T01:54:17.775Z,0.20
2023-05-18T01:56:45.227Z,0.30
2023-05-18T01:59:12.145Z,0.40
2023-05-18T02:01:38.771Z,0.30
2023-05-18T02:04:11.762Z,0.20
2023-05-18T02:06:38.357Z,0.40
2023-05-18T02:09:05.616Z,0.30
2023-05-18T02:11:32.282Z,0.30
2023-05-18T02:13:59.079Z,0.40
2023-05-18T02:16:25.667Z,0.30
2023-05-18T02:18:53.128Z,0.30
2023-05-18T02:21:19.810Z,0.38
2023-05-18T02:23:46.904Z,0.50
2023-05-18T02:26:13.464Z,0.30
2023-05-18T02:28:40.558Z,0.43
2023-05-18T02:31:14.007Z,0.30
2023-05-18T02:33:40.886Z,0.30
2023-05-18T02:36:09.493Z,0.20
2023-05-18T02:38:38.154Z,0.30
2023-05-18T02:41:04.825Z,0.22
2023-05-18T02:43:31.797Z,0.30
2023-05-18T02:45:58.568Z,0.40
2023-05-18T02:48:25.845Z,0.30
2023-05-18T02:50:53.313Z,0.30
2023-05-18T02:53:20.662Z,0.20
2023-05-18T02:55:48.813Z,0.40
2023-05-18T02:58:16.719Z,0.30
2023-05-18T03:00:43.380Z,0.30
2023-05-18T03:03:15.829Z,0.40
2023-05-18T03:05:43.671Z,1.45
2023-05-18T03:08:10.444Z,0.30
2023-05-18T03:10:37.765Z,0.77
2023-05-18T03:13:04.522Z,0.30
2023-05-18T03:15:34.016Z,0.30
2023-05-18T03:18:00.831Z,0.25
2023-05-18T03:20:28.173Z,0.30
2023-05-18T03:22:54.744Z,0.20
2023-05-18T03:25:22.672Z,0.73
2023-05-18T03:27:49.411Z,0.30
2023-05-18T03:30:16.094Z,0.30
2023-05-18T03:32:42.764Z,0.30
2023-05-18T03:35:09.795Z,0.30
2023-05-18T03:37:37.677Z,0.30
2023-05-18T03:40:12.717Z,0.57
2023-05-18T03:42:40.190Z,0.30
2023-05-18T03:45:10.464Z,0.20
2023-05-18T03:47:37.851Z,0.30
2023-05-18T03:50:05.527Z,0.30
2023-05-18T03:52:34.203Z,0.30
2023-05-18T03:55:01.791Z,0.20
2023-05-18T03:57:29.142Z,0.30
2023-05-18T03:59:57.223Z,0.25
2023-05-18T04:02:24.674Z,0.32
2023-05-18T04:04:54.018Z,0.20
2023-05-18T04:07:24.473Z,0.20
2023-05-18T04:09:52.196Z,0.30
2023-05-18T04:12:20.305Z,0.30
2023-05-18T04:14:49.842Z,0.20
2023-05-18T04:17:22.389Z,0.40
2023-05-18T04:19:50.156Z,0.32
2023-05-18T04:22:17.265Z,0.20
2023-05-18T04:24:45.768Z,0.20
2023-05-18T04:27:12.635Z,0.30
2023-05-18T04:29:40.182Z,0.35
2023-05-18T04:32:08.036Z,0.38
2023-05-18T04:34:38.119Z,0.40
2023-05-18T04:37:08.282Z,2.85
2023-05-18T04:39:35.708Z,2.15
2023-05-18T04:42:04.643Z,0.77
2023-05-18T04:44:35.034Z,0.40
2023-05-18T04:47:01.687Z,0.40
2023-05-18T04:49:28.429Z,0.30
2023-05-18T04:51:56.026Z,0.32
2023-05-18T04:54:26.164Z,0.30
2023-05-18T04:56:53.181Z,0.40
2023-05-18T04:59:20.922Z,0.32
2023-05-18T05:01:47.646Z,0.38
2023-05-18T05:04:14.285Z,0.30
2023-05-18T05:06:41.064Z,0.63
2023-05-18T05:09:08.131Z,0.28
2023-05-18T05:11:34.997Z,0.30
2023-05-18T05:14:02.896Z,0.40
2023-05-18T05:16:29.560Z,0.77
2023-05-18T05:18:56.248Z,0.50
2023-05-18T05:21:23.001Z,0.40
2023-05-18T05:23:49.630Z,0.40
2023-05-18T05:26:16.196Z,0.30
2023-05-18T05:28:42.830Z,0.95
2023-05-18T05:31:09.664Z,0.40
2023-05-18T05:33:36.286Z,0.98
2023-05-18T05:36:04.932Z,0.30
2023-05-18T05:38:32.308Z,1.65
2023-05-18T05:40:59.077Z,0.30
2023-05-18T05:43:25.835Z,0.50
2023-05-18T05:45:52.478Z,0.30
2023-05-18T05:48:19.204Z,0.30
2023-05-18T05:50:46.425Z,0.50
2023-05-18T05:53:13.021Z,0.50
2023-05-18T05:55:42.029Z,0.40
2023-05-18T05:58:09.655Z,0.75
2023-05-18T06:00:36.845Z,1.08
2023-05-18T06:03:03.774Z,1.67
2023-05-18T06:05:30.584Z,0.40
2023-05-18T06:07:57.787Z,0.73
2023-05-18T06:10:24.533Z,0.40
2023-05-18T06:12:51.130Z,0.68
2023-05-18T06:15:19.244Z,0.60
2023-05-18T06:17:46.116Z,0.40
2023-05-18T06:20:13.767Z,0.45
2023-05-18T06:22:40.499Z,0.40
2023-05-18T06:25:08.470Z,0.40
2023-05-18T06:27:35.063Z,0.50
2023-05-18T06:30:01.858Z,1.25
2023-05-18T06:32:28.776Z,0.35
2023-05-18T06:34:56.569Z,0.80
2023-05-18T06:37:23.263Z,0.90
2023-05-18T06:39:49.836Z,0.95
2023-05-18T06:42:16.417Z,0.70
2023-05-18T06:44:43.530Z,0.60
2023-05-18T06:47:10.150Z,0.60
2023-05-18T06:49:36.963Z,0.77
2023-05-18T06:52:04.226Z,0.50
2023-05-18T06:54:31.006Z,0.40
2023-05-18T06:56:57.712Z,0.95
2023-05-18T06:59:24.393Z,0.98
2023-05-18T07:01:50.973Z,0.63
2023-05-18T07:04:19.420Z,1.45
2023-05-18T07:06:46.578Z,0.90
2023-05-18T07:09:13.404Z,1.10
2023-05-18T07:11:40.540Z,2.03
2023-05-18T07:14:07.184Z,0.70
2023-05-18T07:16:34.216Z,3.20
2023-05-18T07:19:01.019Z,1.67
2023-05-18T07:21:27.628Z,0.90
2023-05-18T07:23:54.410Z,0.68
2023-05-18T07:26:22.715Z,0.50
2023-05-18T07:28:51.376Z,1.65
2023-05-18T07:31:21.399Z,1.10
2023-05-18T07:33:48.365Z,0.60
2023-05-18T07:36:15.480Z,0.68
2023-05-18T07:38:42.097Z,0.40
2023-05-18T07:41:08.859Z,0.63
2023-05-18T07:43:35.584Z,0.60
2023-05-18T07:46:02.297Z,0.60
2023-05-18T07:48:28.845Z,0.65
2023-05-18T07:50:55.530Z,1.27
2023-05-18T07:53:22.165Z,0.70
2023-05-18T07:55:50.010Z,0.75
2023-05-18T07:58:16.719Z,0.73
2023-05-18T08:00:44.456Z,0.50
2023-05-18T08:03:11.252Z,0.80
2023-05-18T08:05:38.005Z,0.50
2023-05-18T08:08:06.754Z,0.60
2023-05-18T08:10:34.054Z,0.98
2023-05-18T08:13:00.909Z,1.42
2023-05-18T08:15:27.512Z,0.50
2023-05-18T08:17:55.188Z,0.65
2023-05-18T08:20:21.941Z,2.65
2023-05-18T08:22:48.703Z,0.70
2023-05-18T08:25:15.333Z,2.08
2023-05-18T08:27:41.943Z,0.70
2023-05-18T08:30:09.217Z,2.38
2023-05-18T08:32:37.445Z,0.70
2023-05-18T08:35:05.903Z,1.05
2023-05-18T08:37:32.551Z,0.60
2023-05-18T08:39:59.888Z,1.10
2023-05-18T08:42:48.740Z,0.65
2023-05-18T08:45:31.234Z,1.00
2023-05-18T08:48:01.542Z,0.75
2023-05-18T08:50:31.561Z,1.65
2023-05-18T08:53:02.225Z,0.77
2023-05-18T08:55:29.586Z,0.75
2023-05-18T08:57:58.154Z,0.93
2023-05-18T09:00:25.123Z,1.00
2023-05-18T09:02:52.217Z,0.75
2023-05-18T09:05:21.048Z,0.60
2023-05-18T09:07:48.412Z,1.25
2023-05-18T09:10:15.922Z,0.73
2023-05-18T09:12:43.524Z,0.65
2023-05-18T09:15:10.805Z,0.80
2023-05-18T09:17:37.769Z,1.40
2023-05-18T09:20:08.243Z,0.90
2023-05-18T09:22:40.606Z,1.23
2023-05-18T09:25:10.745Z,0.82
2023-05-18T09:27:37.841Z,0.93
2023-05-18T09:30:05.294Z,0.80
2023-05-18T09:32:36.789Z,0.77
2023-05-18T09:37:36.548Z,0.77
2023-05-18T09:40:05.501Z,1.63
2023-05-18T09:42:36.889Z,1.30
2023-05-18T09:45:25.638Z,0.80
2023-05-18T09:47:52.871Z,1.25
2023-05-18T09:50:21.053Z,0.70
2023-05-18T09:52:49.421Z,1.15
2023-05-18T09:55:17.038Z,0.63
2023-05-18T09:57:45.962Z,0.80
2023-05-18T10:00:14.665Z,0.80
2023-05-18T10:02:49.354Z,1.00
2023-05-18T10:05:23.143Z,1.08
2023-05-18T10:07:53.269Z,1.30
2023-05-18T10:10:25.656Z,0.88
2023-05-18T10:12:53.170Z,1.40
2023-05-18T10:15:22.508Z,2.50
2023-05-18T10:17:51.310Z,1.20
2023-05-18T10:20:19.728Z,1.30
2023-05-18T10:22:48.114Z,1.75
2023-05-18T10:25:22.994Z,1.30
2023-05-18T10:27:51.198Z,1.58
2023-05-18T10:30:18.369Z,2.20
2023-05-18T10:32:45.954Z,1.48
2023-05-18T10:35:13.422Z,1.65
2023-05-18T10:37:43.258Z,1.65
2023-05-18T10:40:10.437Z,1.27
2023-05-18T10:42:37.420Z,2.35
2023-05-18T10:45:04.527Z,1.80
2023-05-18T10:47:32.356Z,2.63
2023-05-18T10:50:00.788Z,1.65
2023-05-18T10:52:31.836Z,2.28
2023-05-18T10:55:00.624Z,2.00
2023-05-18T10:58:07.486Z,1.55
2023-05-18T11:00:35.554Z,2.17
2023-05-18T11:03:02.567Z,1.00
2023-05-18T11:05:29.180Z,1.20
2023-05-18T11:08:06.035Z,1.10
2023-05-18T11:10:41.175Z,1.00
2023-05-18T11:13:08.538Z,1.55
2023-05-18T11:15:53.800Z,1.00
2023-05-18T11:18:21.247Z,1.10
2023-05-18T11:20:48.871Z,1.20
2023-05-18T11:23:16.319Z,1.10
2023-05-18T11:25:44.084Z,1.10
2023-05-18T11:28:13.518Z,1.08
2023-05-18T11:30:44.654Z,1.40
2023-05-18T11:33:12.737Z,0.70
2023-05-18T11:36:15.070Z,0.93
2023-05-18T11:38:56.188Z,1.05
2023-05-18T11:41:33.726Z,0.88
2023-05-18T11:44:16.858Z,0.80
2023-05-18T11:46:58.761Z,1.38
2023-05-18T11:49:38.108Z,1.38
2023-05-18T11:52:04.852Z,0.80
2023-05-18T11:54:52.970Z,0.80
2023-05-18T11:57:23.986Z,1.13
2023-05-18T11:59:55.966Z,0.77
2023-05-18T12:02:27.678Z,1.02
2023-05-18T12:04:56.354Z,0.75
2023-05-18T12:07:25.379Z,0.68
2023-05-18T12:09:52.205Z,0.73
2023-05-18T12:12:24.069Z,0.60
2023-05-18T12:14:57.631Z,0.70
2023-05-18T12:17:29.599Z,1.17
2023-05-18T12:19:56.310Z,0.80
2023-05-18T12:22:26.633Z,1.20
2023-05-18T12:24:53.811Z,1.00
2023-05-18T12:27:21.850Z,1.15
2023-05-18T12:29:48.493Z,1.60
2023-05-18T12:32:15.291Z,2.28
2023-05-18T12:34:44.310Z,0.95
2023-05-18T12:37:11.070Z,1.00
2023-05-18T12:39:37.937Z,1.05
2023-05-18T12:42:11.853Z,0.90
2023-05-18T12:44:39.166Z,1.27
2023-05-18T12:47:05.952Z,1.10
2023-05-18T12:49:37.274Z,1.08
2023-05-18T12:52:15.421Z,1.25
2023-05-18T12:55:16.052Z,1.23
2023-05-18T12:57:43.323Z,1.10
2023-05-18T13:00:12.684Z,1.15
2023-05-18T13:02:39.423Z,1.40
2023-05-18T13:05:08.943Z,3.58
2023-05-18T13:07:37.255Z,4.20
2023-05-18T13:10:11.506Z,2.17
2023-05-18T13:12:42.851Z,3.30
2023-05-18T13:15:23.055Z,4.35
2023-05-18T13:17:56.927Z,2.45
2023-05-18T13:20:23.957Z,3.00
2023-05-18T13:22:51.543Z,2.30
2023-05-18T13:25:18.424Z,1.83
2023-05-18T13:27:46.053Z,1.85
2023-05-18T13:30:12.680Z,1.30
2023-05-18T13:32:39.342Z,1.55
2023-05-18T13:35:06.238Z,1.27
2023-05-18T13:37:32.830Z,1.67
2023-05-18T13:39:59.446Z,1.48
2023-05-18T13:42:26.126Z,1.35
2023-05-18T13:44:52.783Z,3.55
2023-05-18T13:47:19.608Z,4.13
2023-05-18T13:49:46.274Z,1.60
2023-05-18T13:52:13.169Z,3.83
2023-05-18T13:54:39.804Z,4.88
2023-05-18T13:57:07.966Z,3.65
2023-05-18T13:59:34.747Z,3.08
2023-05-18T14:02:01.891Z,3.30
2023-05-18T14:04:28.533Z,5.88
2023-05-18T14:06:55.870Z,4.70
2023-05-18T14:09:22.851Z,3.85
2023-05-18T14:11:50.579Z,2.47
2023-05-18T14:14:19.058Z,3.90
2023-05-18T14:16:45.862Z,1.92
2023-05-18T14:19:12.633Z,3.85
2023-05-18T14:21:39.325Z,2.58
2023-05-18T14:24:07.651Z,2.22
2023-05-18T14:26:34.735Z,3.58
2023-05-18T14:29:01.403Z,2.67
2023-05-18T14:31:28.141Z,2.78
2023-05-18T14:33:54.886Z,4.05
2023-05-18T14:36:22.334Z,2.10
2023-05-18T14:38:49.048Z,2.17
2023-05-18T14:41:15.756Z,3.15
2023-05-18T14:43:42.862Z,2.13
2023-05-18T14:46:09.653Z,2.72
2023-05-18T14:48:36.592Z,1.52
2023-05-18T14:51:03.269Z,2.10
2023-05-18T14:53:29.887Z,1.30
2023-05-18T14:55:56.946Z,1.55
2023-05-18T14:58:23.570Z,1.77
2023-05-18T15:00:50.148Z,1.08
2023-05-18T15:03:17.520Z,1.10
2023-05-18T15:05:45.670Z,0.98
2023-05-18T15:08:12.317Z,1.35
2023-05-18T15:10:38.894Z,1.35
2023-05-18T15:13:05.582Z,1.00
2023-05-18T15:15:32.475Z,1.10
2023-05-18T15:17:59.111Z,1.00
2023-05-18T15:20:26.895Z,2.85
2023-05-18T15:22:53.520Z,1.20
2023-05-18T15:25:20.115Z,0.95
2023-05-18T15:27:49.003Z,2.30
2023-05-18T15:30:15.940Z,3.63
2023-05-18T15:32:42.830Z,1.50
2023-05-18T15:35:09.669Z,3.13
2023-05-18T15:37:36.389Z,2.00
2023-05-18T15:40:03.976Z,1.48
2023-05-18T15:42:30.744Z,1.50
2023-05-18T15:44:57.554Z,1.40
2023-05-18T15:47:24.114Z,1.77
2023-05-18T15:49:50.871Z,1.70
2023-05-18T15:52:17.525Z,1.60
2023-05-18T15:54:44.194Z,1.70
2023-05-18T15:57:10.736Z,1.70
2023-05-18T15:59:37.344Z,2.70
2023-05-18T16:02:04.117Z,1.27
2023-05-18T16:04:30.860Z,1.60
2023-05-18T16:06:57.558Z,1.52
2023-05-18T16:09:24.276Z,1.73
2023-05-18T16:11:51.005Z,1.58
2023-05-18T16:14:17.633Z,1.30
2023-05-18T16:16:44.322Z,5.90
2023-05-18T16:19:10.976Z,3.33
2023-05-18T16:21:37.566Z,2.55
2023-05-18T16:24:04.710Z,3.08
2023-05-18T16:26:33.007Z,3.20
2023-05-18T16:28:59.941Z,2.40
2023-05-18T16:31:26.561Z,1.92
2023-05-18T16:33:53.241Z,2.05
2023-05-18T16:36:19.794Z,2.53
2023-05-18T16:38:46.394Z,1.75
2023-05-18T16:41:14.793Z,2.15
2023-05-18T16:43:41.420Z,1.90
2023-05-18T16:46:08.019Z,2.22
2023-05-18T16:48:34.659Z,1.20
2023-05-18T16:51:01.425Z,1.48
2023-05-18T16:53:28.028Z,2.58
2023-05-18T16:55:54.654Z,3.63
2023-05-18T16:58:21.298Z,5.43
2023-05-18T17:00:47.984Z,4.40
2023-05-18T17:03:17.503Z,4.13
2023-05-18T17:05:44.281Z,4.00
2023-05-18T17:08:11.250Z,4.38
2023-05-18T17:10:38.184Z,3.13
2023-05-18T17:13:04.787Z,2.55
2023-05-18T17:15:32.090Z,2.97
2023-05-18T17:17:59.321Z,3.75
2023-05-18T17:20:26.172Z,2.13
2023-05-18T17:22:52.836Z,2.22
2023-05-18T17:25:20.033Z,2.10
2023-05-18T17:27:46.612Z,2.42
2023-05-18T17:30:13.413Z,1.70
2023-05-18T17:32:40.070Z,2.70
2023-05-18T17:35:12.471Z,3.28
2023-05-18T17:37:41.371Z,2.13
2023-05-18T17:40:09.860Z,1.92
2023-05-18T17:42:36.860Z,1.45
2023-05-18T17:45:03.834Z,3.13
2023-05-18T17:47:30.449Z,1.33
2023-05-18T17:49:57.267Z,2.20
2023-05-18T17:52:23.819Z,0.88
2023-05-18T17:54:52.325Z,1.23
2023-05-18T17:57:18.921Z,2.75
2023-05-18T17:59:45.494Z,1.00
2023-05-18T18:02:14.156Z,1.30
2023-05-18T18:04:40.845Z,1.55
2023-05-18T18:07:07.527Z,1.23
2023-05-18T18:09:34.419Z,1.52
2023-05-18T18:12:01.235Z,0.90
2023-05-18T18:14:27.882Z,0.90
2023-05-18T18:16:54.879Z,1.42
2023-05-18T18:19:22.360Z,1.00
2023-05-18T18:21:49.050Z,1.00
2023-05-18T18:24:15.754Z,0.82
2023-05-18T18:26:42.316Z,2.22
2023-05-18T18:29:08.912Z,1.00
2023-05-18T18:31:35.792Z,1.10
2023-05-18T18:34:02.430Z,1.35
2023-05-18T18:36:29.123Z,0.80
2023-05-18T18:38:55.762Z,1.15
2023-05-18T18:41:22.321Z,0.88
2023-05-18T18:43:48.989Z,1.25
2023-05-18T18:46:15.846Z,1.02
2023-05-18T18:48:42.598Z,0.88
2023-05-18T18:51:09.222Z,1.23
2023-05-18T18:53:35.824Z,0.95
2023-05-18T18:56:02.442Z,1.15
2023-05-18T18:58:28.996Z,0.90
2023-05-18T19:00:55.735Z,0.90
2023-05-18T19:03:22.666Z,1.10
2023-05-18T19:05:50.346Z,1.05
2023-05-18T19:08:17.303Z,1.08
2023-05-18T19:10:44.890Z,1.15
2023-05-18T19:13:11.670Z,1.48
2023-05-18T19:15:38.471Z,1.10
2023-05-18T19:18:06.609Z,1.55
2023-05-18T19:20:33.830Z,1.00
2023-05-18T19:23:00.535Z,1.13
2023-05-18T19:25:29.875Z,0.93
2023-05-18T19:27:56.978Z,1.20
2023-05-18T19:30:23.941Z,0.70
2023-05-18T19:32:52.514Z,1.13
2023-05-18T19:35:20.682Z,0.90
2023-05-18T19:37:47.723Z,1.95
2023-05-18T19:40:14.601Z,1.25
2023-05-18T19:42:41.323Z,1.90
2023-05-18T19:45:08.152Z,1.98
2023-05-18T19:47:35.346Z,1.20
2023-05-18T19:50:02.253Z,1.02
2023-05-18T19:52:28.853Z,1.35
2023-05-18T19:54:56.329Z,1.05
2023-05-18T19:57:23.016Z,0.75
2023-05-18T19:59:49.582Z,0.80
2023-05-18T20:02:16.212Z,0.90
2023-05-18T20:04:43.578Z,0.95
2023-05-18T20:07:10.231Z,2.15
2023-05-18T20:09:36.982Z,2.42
2023-05-18T20:12:06.115Z,1.38
2023-05-18T20:14:33.630Z,1.00
2023-05-18T20:17:00.925Z,1.00
2023-05-18T20:19:30.884Z,1.27
2023-05-18T20:21:58.038Z,0.80
2023-05-18T20:24:25.112Z,1.10
2023-05-18T20:26:52.982Z,0.80
2023-05-18T20:29:19.655Z,0.88
2023-05-18T20:31:46.534Z,0.80
2023-05-18T20:34:13.164Z,1.02
2023-05-18T20:36:39.815Z,0.90
2023-05-18T20:39:07.342Z,0.80
2023-05-18T20:41:34.117Z,1.02
2023-05-18T20:44:02.071Z,0.80
2023-05-18T20:46:31.186Z,1.33
2023-05-18T20:48:58.120Z,1.52
2023-05-18T20:51:24.874Z,0.80
2023-05-18T20:53:51.773Z,0.88
2023-05-18T20:56:18.893Z,1.20
2023-05-18T20:58:48.671Z,0.90
2023-05-18T21:01:16.607Z,1.05
2023-05-18T21:03:45.481Z,0.88
2023-05-18T21:06:13.138Z,0.93
2023-05-18T21:08:40.806Z,1.17
2023-05-18T21:11:07.552Z,0.90
2023-05-18T21:13:36.822Z,3.65
2023-05-18T21:16:06.695Z,0.90
2023-05-18T21:18:34.453Z,1.42
2023-05-18T21:21:02.413Z,1.15
2023-05-18T21:23:29.254Z,1.17
2023-05-18T21:25:56.961Z,1.27
2023-05-18T21:28:26.420Z,0.80
2023-05-18T21:30:53.988Z,1.80
2023-05-18T21:33:22.001Z,0.90
2023-05-18T21:35:48.861Z,1.08
2023-05-18T21:38:16.724Z,1.13
2023-05-18T21:40:44.016Z,0.80
2023-05-18T21:43:10.915Z,0.77
2023-05-18T21:45:37.681Z,1.25
2023-05-18T21:48:04.808Z,3.92
2023-05-18T21:50:34.633Z,1.40
2023-05-18T21:53:04.950Z,1.20
2023-05-18T21:55:32.256Z,0.68
2023-05-18T21:57:59.389Z,1.08
2023-05-18T22:00:27.222Z,0.90
2023-05-18T22:02:53.998Z,1.20
2023-05-18T22:05:21.117Z,1.02
2023-05-18T22:07:48.666Z,0.80
2023-05-18T22:10:15.278Z,0.80
2023-05-18T22:12:43.599Z,1.25
2023-05-18T22:15:10.897Z,1.40
2023-05-18T22:17:37.820Z,1.38
2023-05-18T22:20:06.513Z,0.80
2023-05-18T22:22:33.098Z,1.17
2023-05-18T22:24:59.719Z,0.70
2023-05-18T22:27:26.508Z,0.80
2023-05-18T22:29:53.054Z,2.67
2023-05-18T22:32:19.744Z,1.25
2023-05-18T22:34:46.394Z,1.15
2023-05-18T22:37:13.211Z,0.90
2023-05-18T22:39:39.815Z,0.98
2023-05-18T22:42:06.739Z,0.88
2023-05-18T22:44:33.353Z,0.90
2023-05-18T22:47:00.281Z,2.38
2023-05-18T22:49:26.960Z,1.30
2023-05-18T22:51:53.718Z,1.27
2023-05-18T22:54:20.334Z,1.08
2023-05-18T22:56:46.927Z,0.70
2023-05-18T22:59:13.501Z,1.13
2023-05-18T23:01:40.296Z,0.90
2023-05-18T23:04:07.279Z,1.17
2023-05-18T23:06:34.568Z,0.90
2023-05-18T23:09:01.211Z,1.40
2023-05-18T23:11:28.693Z,2.20
2023-05-18T23:13:55.412Z,0.73
2023-05-18T23:16:24.184Z,1.00
2023-05-18T23:18:53.651Z,1.05
2023-05-18T23:21:21.744Z,0.75
2023-05-18T23:23:48.361Z,0.90
2023-05-18T23:26:15.035Z,0.80
2023-05-18T23:28:41.792Z,0.85
2023-05-18T23:31:08.442Z,1.40
2023-05-18T23:33:35.551Z,0.98
2023-05-18T23:36:04.010Z,0.80
2023-05-18T23:38:37.970Z,0.70
2023-05-18T23:41:05.341Z,0.70
2023-05-18T23:43:32.223Z,0.82
2023-05-18T23:45:59.933Z,1.13
2023-05-18T23:48:30.003Z,0.75
2023-05-18T23:51:05.831Z,1.50
2023-05-18T23:53:32.523Z,1.00
2023-05-18T23:55:59.914Z,0.88
2023-05-18T23:58:29.652Z,1.00
